createdAt,value
2022-12-18T00:02:13.867Z,6.38
2022-12-18T00:04:40.560Z,7.57
2022-12-18T00:07:07.538Z,6.90
2022-12-18T00:09:39.285Z,6.40
2022-12-18T00:14:45.578Z,7.07
2022-12-18T00:17:12.267Z,6.88
2022-12-18T00:19:38.989Z,7.78
2022-12-18T00:22:07.024Z,7.20
2022-12-18T00:24:33.602Z,6.90
2022-12-18T00:27:00.166Z,7.95
2022-12-18T00:29:26.729Z,8.30
2022-12-18T00:31:53.324Z,7.78
2022-12-18T00:34:19.999Z,8.60
2022-12-18T00:36:48.832Z,7.05
2022-12-18T00:39:15.576Z,7.57
2022-12-18T00:42:00.629Z,7.97
2022-12-18T00:44:27.203Z,7.22
2022-12-18T00:46:53.789Z,6.03
2022-12-18T00:49:21.218Z,7.25
2022-12-18T00:51:48.930Z,8.07
2022-12-18T00:54:16.035Z,6.90
2022-12-18T00:56:48.980Z,7.28
2022-12-18T00:59:17.847Z,6.90
2022-12-18T01:01:45.761Z,7.22
2022-12-18T01:04:12.660Z,7.57
2022-12-18T01:06:39.283Z,8.82
2022-12-18T01:09:06.991Z,8.35
2022-12-18T01:11:33.582Z,7.88
2022-12-18T01:14:03.472Z,7.25
2022-12-18T01:16:30.104Z,7.80
2022-12-18T01:18:56.807Z,7.63
2022-12-18T01:21:25.107Z,7.40
2022-12-18T01:23:56.774Z,7.50
2022-12-18T01:26:24.362Z,6.93
2022-12-18T01:28:50.928Z,8.18
2022-12-18T01:31:29.150Z,8.32
2022-12-18T01:33:56.997Z,8.10
2022-12-18T01:36:29.713Z,7.97
2022-12-18T01:38:57.301Z,7.38
2022-12-18T01:41:27.619Z,8.07
2022-12-18T01:43:58.296Z,7.35
2022-12-18T01:46:28.661Z,8.30
2022-12-18T01:49:01.311Z,8.07
2022-12-18T01:51:31.510Z,9.27
2022-12-18T01:54:00.353Z,7.63
2022-12-18T01:56:27.116Z,9.18
2022-12-18T01:59:05.634Z,8.02
2022-12-18T02:01:33.541Z,7.80
2022-12-18T02:04:26.357Z,7.30
2022-12-18T02:07:03.736Z,8.02
2022-12-18T02:09:40.218Z,7.65
2022-12-18T02:12:16.718Z,7.68
2022-12-18T02:15:04.935Z,9.93
2022-12-18T02:17:55.601Z,7.95
2022-12-18T02:20:41.918Z,8.45
2022-12-18T02:23:26.616Z,8.05
2022-12-18T02:26:19.704Z,9.15
2022-12-18T02:29:12.858Z,7.82
2022-12-18T02:32:08.959Z,8.02
2022-12-18T02:34:39.813Z,7.88
2022-12-18T02:37:11.935Z,8.55
2022-12-18T02:39:40.866Z,7.95
2022-12-18T02:42:10.491Z,8.32
2022-12-18T02:44:47.214Z,8.57
2022-12-18T02:47:15.837Z,8.57
2022-12-18T02:50:00.594Z,8.35
2022-12-18T02:53:11.039Z,8.23
2022-12-18T02:56:03.884Z,8.10
2022-12-18T02:58:30.362Z,7.95
2022-12-18T03:01:09.040Z,10.15
2022-12-18T03:03:53.741Z,8.93
2022-12-18T03:06:45.628Z,8.32
2022-12-18T03:09:19.021Z,8.70
2022-12-18T03:12:12.344Z,7.82
2022-12-18T03:14:41.806Z,8.93
2022-12-18T03:17:16.607Z,8.52
2022-12-18T03:19:46.461Z,8.70
2022-12-18T03:22:14.433Z,9.05
2022-12-18T03:24:41.283Z,7.97
2022-12-18T03:27:14.241Z,8.35
2022-12-18T03:30:08.442Z,7.75
2022-12-18T03:32:43.282Z,9.35
2022-12-18T03:35:14.120Z,8.27
2022-12-18T03:37:41.054Z,8.10
2022-12-18T03:40:08.154Z,8.02
2022-12-18T03:43:03.091Z,7.68
2022-12-18T03:45:47.034Z,8.15
2022-12-18T03:48:52.816Z,8.00
2022-12-18T03:51:24.427Z,8.48
2022-12-18T03:53:58.860Z,8.40
2022-12-18T03:56:30.626Z,7.93
2022-12-18T03:59:00.411Z,8.32
2022-12-18T04:01:34.025Z,8.25
2022-12-18T04:04:02.958Z,8.07
2022-12-18T04:06:30.850Z,8.57
2022-12-18T04:08:59.018Z,9.30
2022-12-18T04:11:26.091Z,8.43
2022-12-18T04:13:57.060Z,8.40
2022-12-18T04:16:23.901Z,8.45
2022-12-18T04:18:50.522Z,8.55
2022-12-18T04:21:17.087Z,8.20
2022-12-18T04:23:43.814Z,9.57
2022-12-18T04:26:10.466Z,8.23
2022-12-18T04:28:37.100Z,7.60
2022-12-18T04:31:03.746Z,8.15
2022-12-18T04:33:30.408Z,9.18
2022-12-18T04:35:56.984Z,9.70
2022-12-18T04:38:23.564Z,9.27
2022-12-18T04:40:50.132Z,8.27
2022-12-18T04:43:17.027Z,10.05
2022-12-18T04:45:43.720Z,7.80
2022-12-18T04:48:10.320Z,9.38
2022-12-18T04:50:37.432Z,8.20
2022-12-18T04:53:04.096Z,8.55
2022-12-18T04:55:30.966Z,8.00
2022-12-18T04:57:57.568Z,9.57
2022-12-18T05:00:24.218Z,8.98
2022-12-18T05:02:51.023Z,8.18
2022-12-18T05:05:17.803Z,8.75
2022-12-18T05:07:44.407Z,8.82
2022-12-18T05:10:11.108Z,9.25
2022-12-18T05:12:59.327Z,8.52
2022-12-18T05:15:32.973Z,9.88
2022-12-18T05:18:00.183Z,8.82
2022-12-18T05:20:27.631Z,8.65
2022-12-18T05:22:54.239Z,9.75
2022-12-18T05:25:21.753Z,9.55
2022-12-18T05:27:48.726Z,9.27
2022-12-18T05:30:16.839Z,8.88
2022-12-18T05:32:43.944Z,8.85
2022-12-18T05:35:11.873Z,8.63
2022-12-18T05:37:42.983Z,8.38
2022-12-18T05:40:10.952Z,9.23
2022-12-18T05:42:37.829Z,9.32
2022-12-18T05:45:05.888Z,9.40
2022-12-18T05:47:32.525Z,8.98
2022-12-18T05:49:59.155Z,8.93
2022-12-18T05:52:25.741Z,8.65
2022-12-18T05:54:52.332Z,9.10
2022-12-18T05:57:18.884Z,8.90
2022-12-18T05:59:45.688Z,8.40
2022-12-18T06:02:12.392Z,8.18
2022-12-18T06:04:39.083Z,8.52
2022-12-18T06:07:05.664Z,9.10
2022-12-18T06:09:33.011Z,9.10
2022-12-18T06:11:59.790Z,9.07
2022-12-18T06:14:26.618Z,8.80
2022-12-18T06:16:53.369Z,8.98
2022-12-18T06:19:19.963Z,9.75
2022-12-18T06:21:46.642Z,9.27
2022-12-18T06:24:13.306Z,8.40
2022-12-18T06:26:40.150Z,10.60
2022-12-18T06:29:07.130Z,10.65
2022-12-18T06:31:34.103Z,11.13
2022-12-18T06:34:03.803Z,10.52
2022-12-18T06:36:30.710Z,11.40
2022-12-18T06:38:58.600Z,10.25
2022-12-18T06:41:25.308Z,9.65
2022-12-18T06:43:55.563Z,10.10
2022-12-18T06:46:24.941Z,10.82
2022-12-18T06:48:51.730Z,10.80
2022-12-18T06:51:22.894Z,10.60
2022-12-18T06:53:49.838Z,9.32
2022-12-18T06:56:16.956Z,9.75
2022-12-18T06:58:43.600Z,9.60
2022-12-18T07:01:12.469Z,9.77
2022-12-18T07:03:43.162Z,11.50
2022-12-18T07:06:16.276Z,10.35
2022-12-18T07:08:42.847Z,10.57
2022-12-18T07:11:09.416Z,11.15
2022-12-18T07:13:36.083Z,10.85
2022-12-18T07:16:25.279Z,11.27
2022-12-18T07:18:52.819Z,10.55
2022-12-18T07:21:21.123Z,10.50
2022-12-18T07:23:49.064Z,10.38
2022-12-18T07:26:18.414Z,11.52
2022-12-18T07:28:45.202Z,10.68
2022-12-18T07:31:18.315Z,10.88
2022-12-18T07:33:46.388Z,9.40
2022-12-18T07:36:13.782Z,11.30
2022-12-18T07:38:40.611Z,10.45
2022-12-18T07:41:13.328Z,10.82
2022-12-18T07:43:41.781Z,10.57
2022-12-18T07:46:10.259Z,10.13
2022-12-18T07:48:36.898Z,9.68
2022-12-18T07:51:06.210Z,10.45
2022-12-18T07:53:34.192Z,9.73
2022-12-18T07:56:26.469Z,11.13
2022-12-18T07:58:49.938Z,10.38
2022-12-18T08:01:16.684Z,9.48
2022-12-18T08:03:43.868Z,10.10
2022-12-18T08:06:11.343Z,10.52
2022-12-18T08:08:38.420Z,10.50
2022-12-18T08:11:05.143Z,9.10
2022-12-18T08:13:31.796Z,9.77
2022-12-18T08:16:07.294Z,9.77
2022-12-18T08:18:35.380Z,13.20
2022-12-18T08:21:12.912Z,10.40
2022-12-18T08:23:43.112Z,9.77
2022-12-18T08:26:11.369Z,12.35
2022-12-18T08:28:38.015Z,10.07
2022-12-18T08:31:04.988Z,10.10
2022-12-18T08:33:32.390Z,11.20
2022-12-18T08:36:02.887Z,9.32
2022-12-18T08:38:29.624Z,9.32
2022-12-18T08:41:04.257Z,8.90
2022-12-18T08:43:49.453Z,9.45
2022-12-18T08:46:20.344Z,8.75
2022-12-18T08:48:48.027Z,9.85
2022-12-18T08:51:17.231Z,9.00
2022-12-18T08:53:45.340Z,9.15
2022-12-18T08:56:12.762Z,9.25
2022-12-18T08:58:39.566Z,9.52
2022-12-18T09:01:08.338Z,8.82
2022-12-18T09:03:34.967Z,9.93
2022-12-18T09:06:01.762Z,9.48
2022-12-18T09:08:29.025Z,8.82
2022-12-18T09:10:56.145Z,8.55
2022-12-18T09:13:23.290Z,10.23
2022-12-18T09:15:52.948Z,10.23
2022-12-18T09:18:21.352Z,8.18
2022-12-18T09:20:48.097Z,10.25
2022-12-18T09:23:14.937Z,9.73
2022-12-18T09:25:41.767Z,8.32
2022-12-18T09:28:12.082Z,9.20
2022-12-18T09:30:40.273Z,8.65
2022-12-18T09:33:07.002Z,8.65
2022-12-18T09:35:37.060Z,9.25
2022-12-18T09:38:03.668Z,8.85
2022-12-18T09:40:36.268Z,8.57
2022-12-18T09:43:07.337Z,8.25
2022-12-18T09:45:45.615Z,9.20
2022-12-18T09:48:24.161Z,9.32
2022-12-18T09:50:53.271Z,9.00
2022-12-18T09:53:27.646Z,9.18
2022-12-18T09:55:55.743Z,8.90
2022-12-18T09:58:49.685Z,9.05
2022-12-18T10:01:22.013Z,9.23
2022-12-18T10:03:48.872Z,8.40
2022-12-18T10:06:23.240Z,8.13
2022-12-18T10:09:22.825Z,8.30
2022-12-18T10:11:58.511Z,9.00
2022-12-18T10:14:34.252Z,8.40
2022-12-18T10:17:38.390Z,9.15
2022-12-18T10:20:16.969Z,8.75
2022-12-18T10:23:19.157Z,9.25
2022-12-18T10:25:58.817Z,8.68
2022-12-18T10:28:26.817Z,8.15
2022-12-18T10:30:53.463Z,8.57
2022-12-18T10:33:23.841Z,8.18
2022-12-18T10:35:52.023Z,9.48
2022-12-18T10:38:18.543Z,9.13
2022-12-18T10:40:58.693Z,8.15
2022-12-18T10:43:31.339Z,8.73
2022-12-18T10:46:09.954Z,8.75
2022-12-18T10:48:48.488Z,8.05
2022-12-18T10:51:34.867Z,8.90
2022-12-18T10:54:01.401Z,8.07
2022-12-18T10:56:32.080Z,8.10
2022-12-18T10:59:05.119Z,8.77
2022-12-18T11:01:56.262Z,8.80
2022-12-18T11:04:33.479Z,7.57
2022-12-18T11:07:01.281Z,8.60
2022-12-18T11:09:33.380Z,8.85
2022-12-18T11:12:15.626Z,8.70
2022-12-18T11:14:46.533Z,8.43
2022-12-18T11:17:25.792Z,9.40
2022-12-18T11:19:59.006Z,8.77
2022-12-18T11:22:31.694Z,8.05
2022-12-18T11:25:32.765Z,9.07
2022-12-18T11:28:04.608Z,9.30
2022-12-18T11:30:36.503Z,8.13
2022-12-18T11:33:19.919Z,8.77
2022-12-18T11:35:46.599Z,7.93
2022-12-18T11:38:35.550Z,8.25
2022-12-18T11:41:22.334Z,7.97
2022-12-18T11:43:56.816Z,8.73
2022-12-18T11:46:37.094Z,9.00
2022-12-18T11:49:18.284Z,8.75
2022-12-18T11:52:10.081Z,8.52
2022-12-18T11:54:37.331Z,8.75
2022-12-18T11:57:25.082Z,9.10
2022-12-18T12:00:10.135Z,8.30
2022-12-18T12:03:05.081Z,8.40
2022-12-18T12:06:06.714Z,9.40
2022-12-18T12:09:13.295Z,8.48
2022-12-18T12:12:03.020Z,8.50
2022-12-18T12:14:52.614Z,8.52
2022-12-18T12:17:28.119Z,8.00
2022-12-18T12:20:03.593Z,7.78
2022-12-18T12:22:57.455Z,8.40
2022-12-18T12:25:36.509Z,8.00
2022-12-18T12:28:40.333Z,8.13
2022-12-18T12:31:22.314Z,8.00
2022-12-18T12:34:03.673Z,7.88
2022-12-18T12:36:37.980Z,8.98
2022-12-18T12:39:41.625Z,8.57
2022-12-18T12:42:39.511Z,9.07
2022-12-18T12:45:07.841Z,10.07
2022-12-18T12:47:41.071Z,8.40
2022-12-18T12:50:16.205Z,8.10
2022-12-18T12:52:48.348Z,8.40
2022-12-18T12:55:35.162Z,8.80
2022-12-18T12:58:33.267Z,7.93
2022-12-18T13:01:11.284Z,8.02
2022-12-18T13:03:57.794Z,9.40
2022-12-18T13:06:49.204Z,8.80
2022-12-18T13:09:16.474Z,8.63
2022-12-18T13:12:05.378Z,8.00
2022-12-18T13:14:40.710Z,8.10
2022-12-18T13:17:22.672Z,8.38
2022-12-18T13:20:16.990Z,8.27
2022-12-18T13:22:49.931Z,8.00
2022-12-18T13:25:35.385Z,8.38
2022-12-18T13:28:15.485Z,7.22
2022-12-18T13:30:43.381Z,8.15
2022-12-18T13:33:18.812Z,9.15
2022-12-18T13:35:48.446Z,8.07
2022-12-18T13:38:28.588Z,8.10
2022-12-18T13:40:57.717Z,7.93
2022-12-18T13:43:29.526Z,9.18
2022-12-18T13:46:07.616Z,11.43
2022-12-18T13:48:38.814Z,14.07
2022-12-18T13:51:11.805Z,12.10
2022-12-18T13:53:50.824Z,13.70
2022-12-18T13:56:18.977Z,9.45
2022-12-18T13:58:46.196Z,10.98
2022-12-18T14:01:24.323Z,12.07
2022-12-18T14:04:11.362Z,14.85
2022-12-18T14:06:38.731Z,10.98
2022-12-18T14:09:06.194Z,10.65
2022-12-18T14:11:36.189Z,12.80
2022-12-18T14:14:06.644Z,12.85
2022-12-18T14:16:33.339Z,10.65
2022-12-18T14:19:05.008Z,10.35
2022-12-18T14:21:47.500Z,9.80
2022-12-18T14:24:23.099Z,10.40
2022-12-18T14:26:51.366Z,10.30
2022-12-18T14:29:29.811Z,10.30
2022-12-18T14:32:17.521Z,8.68
2022-12-18T14:34:55.138Z,9.00
2022-12-18T14:37:27.280Z,10.32
2022-12-18T14:40:11.016Z,8.85
2022-12-18T14:42:38.465Z,8.70
2022-12-18T14:45:41.059Z,8.48
2022-12-18T14:48:19.056Z,9.38
2022-12-18T14:51:23.310Z,9.85
2022-12-18T14:54:03.596Z,9.07
2022-12-18T14:56:36.275Z,8.50
2022-12-18T14:59:16.980Z,8.43
2022-12-18T15:02:16.794Z,7.22
2022-12-18T15:04:45.008Z,8.55
2022-12-18T15:07:22.875Z,9.57
2022-12-18T15:10:12.485Z,8.40
2022-12-18T15:12:49.377Z,11.40
2022-12-18T15:15:34.760Z,9.32
2022-12-18T15:18:03.812Z,9.88
2022-12-18T15:20:40.291Z,9.40
2022-12-18T15:23:16.226Z,7.90
2022-12-18T15:25:44.032Z,8.57
2022-12-18T15:28:24.838Z,8.60
2022-12-18T15:31:23.396Z,8.13
2022-12-18T15:33:53.939Z,7.60
2022-12-18T15:36:26.563Z,8.93
2022-12-18T15:39:02.923Z,9.13
2022-12-18T15:41:36.810Z,8.68
2022-12-18T15:44:04.326Z,8.00
2022-12-18T15:46:31.866Z,9.73
2022-12-18T15:49:02.259Z,7.40
2022-12-18T15:51:35.502Z,8.07
2022-12-18T15:54:10.366Z,8.68
2022-12-18T15:56:55.551Z,8.02
2022-12-18T15:59:24.039Z,8.85
2022-12-18T16:01:54.055Z,8.48
2022-12-18T16:04:22.190Z,9.02
2022-12-18T16:09:37.395Z,8.82
2022-12-18T16:12:04.308Z,7.30
2022-12-18T16:14:31.846Z,7.53
2022-12-18T16:17:02.032Z,8.73
2022-12-18T16:19:29.733Z,7.55
2022-12-18T16:21:58.820Z,8.30
2022-12-18T16:24:28.540Z,7.93
2022-12-18T16:26:58.712Z,7.55
2022-12-18T16:29:28.337Z,7.50
2022-12-18T16:31:59.484Z,7.65
2022-12-18T16:34:29.670Z,8.82
2022-12-18T16:37:05.151Z,7.65
2022-12-18T16:39:34.322Z,8.55
2022-12-18T16:42:05.700Z,8.90
2022-12-18T16:44:33.806Z,9.05
2022-12-18T16:47:02.929Z,8.75
2022-12-18T16:49:30.505Z,8.90
2022-12-18T16:51:57.347Z,8.73
2022-12-18T16:54:24.263Z,8.52
2022-12-18T16:56:51.821Z,8.15
2022-12-18T16:59:19.119Z,8.60
2022-12-18T17:01:47.285Z,8.98
2022-12-18T17:04:14.684Z,9.38
2022-12-18T17:06:44.058Z,9.63
2022-12-18T17:09:15.973Z,8.77
2022-12-18T17:11:43.735Z,8.75
2022-12-18T17:14:14.118Z,8.52
2022-12-18T17:16:40.789Z,8.63
2022-12-18T17:19:10.983Z,11.85
2022-12-18T17:21:42.110Z,9.45
2022-12-18T17:24:08.985Z,10.25
2022-12-18T17:26:35.620Z,9.25
2022-12-18T17:29:02.381Z,9.27
2022-12-18T17:31:31.936Z,9.88
2022-12-18T17:33:58.809Z,11.20
2022-12-18T17:36:28.563Z,9.20
2022-12-18T17:38:57.727Z,9.05
2022-12-18T17:41:25.032Z,9.13
2022-12-18T17:43:57.740Z,9.05
2022-12-18T17:46:25.893Z,9.23
2022-12-18T17:48:55.036Z,9.93
2022-12-18T17:51:21.844Z,9.60
2022-12-18T17:53:48.774Z,9.45
2022-12-18T17:56:17.437Z,9.45
2022-12-18T17:58:44.353Z,9.32
2022-12-18T18:01:23.213Z,10.32
2022-12-18T18:03:53.705Z,10.10
2022-12-18T18:06:21.512Z,9.68
2022-12-18T18:08:48.874Z,10.18
2022-12-18T18:11:37.197Z,11.75
2022-12-18T18:14:12.028Z,9.80
2022-12-18T18:16:41.677Z,9.50
2022-12-18T18:19:11.505Z,10.10
2022-12-18T18:21:41.093Z,10.07
2022-12-18T18:24:08.436Z,10.52
2022-12-18T18:26:36.553Z,10.23
2022-12-18T18:29:06.384Z,11.40
2022-12-18T18:31:40.745Z,11.02
2022-12-18T18:34:08.112Z,9.60
2022-12-18T18:36:34.805Z,10.43
2022-12-18T18:39:02.331Z,11.48
2022-12-18T18:41:30.611Z,9.68
2022-12-18T18:43:58.686Z,11.10
2022-12-18T18:46:26.243Z,10.73
2022-12-18T18:48:53.459Z,10.32
2022-12-18T18:51:21.310Z,10.02
2022-12-18T18:53:50.075Z,10.95
2022-12-18T18:59:05.200Z,10.90
2022-12-18T19:01:32.125Z,10.50
2022-12-18T19:03:58.842Z,11.85
2022-12-18T19:06:28.425Z,10.93
2022-12-18T19:08:56.568Z,11.98
2022-12-18T19:11:43.447Z,11.80
2022-12-18T19:14:12.521Z,10.77
2022-12-18T19:16:39.827Z,11.50
2022-12-18T19:19:07.620Z,11.98
2022-12-18T19:21:35.029Z,11.27
2022-12-18T19:24:02.857Z,12.02
2022-12-18T19:26:30.379Z,11.43
2022-12-18T19:29:07.720Z,12.13
2022-12-18T19:31:36.504Z,11.15
2022-12-18T19:34:05.183Z,11.90
2022-12-18T19:36:33.230Z,11.00
2022-12-18T19:39:01.623Z,11.43
2022-12-18T19:41:32.071Z,10.88
2022-12-18T19:44:00.047Z,11.70
2022-12-18T19:46:28.837Z,11.02
2022-12-18T19:48:55.507Z,10.75
2022-12-18T19:51:27.004Z,9.98
2022-12-18T19:53:58.773Z,11.80
2022-12-18T19:56:28.930Z,11.18
2022-12-18T19:58:55.551Z,10.75
2022-12-18T20:01:24.204Z,10.23
2022-12-18T20:03:53.756Z,10.80
2022-12-18T20:06:31.222Z,10.52
2022-12-18T20:09:01.424Z,10.68
2022-12-18T20:11:32.176Z,11.43
2022-12-18T20:13:58.938Z,10.40
2022-12-18T20:16:25.665Z,10.65
2022-12-18T20:18:52.449Z,11.93
2022-12-18T20:21:19.711Z,11.05
2022-12-18T20:23:46.419Z,11.70
2022-12-18T20:26:13.053Z,11.48
2022-12-18T20:28:40.412Z,10.20
2022-12-18T20:31:13.448Z,11.25
2022-12-18T20:33:42.219Z,11.65
2022-12-18T20:36:15.377Z,11.05
2022-12-18T20:38:43.280Z,11.52
2022-12-18T20:41:16.378Z,10.73
2022-12-18T20:43:43.821Z,12.18
2022-12-18T20:46:13.632Z,11.45
2022-12-18T20:48:40.740Z,11.10
2022-12-18T20:51:19.497Z,11.48
2022-12-18T20:53:47.698Z,11.90
2022-12-18T20:56:21.648Z,11.90
2022-12-18T20:58:51.803Z,12.23
2022-12-18T21:01:21.525Z,11.18
2022-12-18T21:03:49.452Z,10.32
2022-12-18T21:06:18.229Z,12.02
2022-12-18T21:08:45.032Z,11.80
2022-12-18T21:11:35.937Z,11.93
2022-12-18T21:14:03.868Z,10.68
2022-12-18T21:16:31.044Z,11.40
2022-12-18T21:18:57.831Z,11.10
2022-12-18T21:21:26.964Z,11.45
2022-12-18T21:23:54.021Z,11.32
2022-12-18T21:26:26.297Z,11.27
2022-12-18T21:29:04.669Z,11.70
2022-12-18T21:31:34.895Z,10.90
2022-12-18T21:34:02.631Z,11.15
2022-12-18T21:36:30.389Z,12.63
2022-12-18T21:38:57.994Z,11.68
2022-12-18T21:41:44.642Z,12.13
2022-12-18T21:44:13.868Z,11.43
2022-12-18T21:46:43.158Z,10.48
2022-12-18T21:49:10.793Z,10.30
2022-12-18T21:51:37.950Z,12.82
2022-12-18T21:54:04.813Z,11.27
2022-12-18T21:56:51.984Z,10.55
2022-12-18T21:59:24.197Z,9.98
2022-12-18T22:01:52.683Z,10.40
2022-12-18T22:04:20.564Z,11.05
2022-12-18T22:06:49.020Z,10.93
2022-12-18T22:09:18.457Z,12.05
2022-12-18T22:11:45.167Z,13.55
2022-12-18T22:14:12.409Z,11.83
2022-12-18T22:16:39.424Z,10.57
2022-12-18T22:19:06.579Z,10.13
2022-12-18T22:21:35.950Z,10.15
2022-12-18T22:24:07.937Z,10.32
2022-12-18T22:26:40.086Z,11.00
2022-12-18T22:29:26.776Z,9.88
2022-12-18T22:31:53.351Z,12.65
2022-12-18T22:34:22.982Z,9.73
2022-12-18T22:36:50.874Z,10.68
2022-12-18T22:39:23.346Z,9.07
2022-12-18T22:41:50.991Z,10.23
2022-12-18T22:44:18.120Z,10.10
2022-12-18T22:46:50.081Z,10.80
2022-12-18T22:49:25.808Z,9.70
2022-12-18T22:51:53.421Z,10.73
2022-12-18T22:54:20.764Z,10.18
2022-12-18T22:56:47.440Z,10.27
2022-12-18T22:59:19.468Z,10.77
2022-12-18T23:01:47.115Z,10.68
2022-12-18T23:04:14.990Z,11.30
2022-12-18T23:06:42.448Z,11.40
2022-12-18T23:09:15.437Z,10.00
2022-12-18T23:11:42.592Z,9.27
2022-12-18T23:14:09.193Z,9.73
2022-12-18T23:16:35.880Z,9.10
2022-12-18T23:19:03.790Z,9.20
2022-12-18T23:21:30.500Z,10.18
2022-12-18T23:23:57.170Z,9.85
2022-12-18T23:26:25.521Z,10.18
2022-12-18T23:28:53.473Z,8.45
2022-12-18T23:31:25.912Z,9.25
2022-12-18T23:33:53.870Z,9.52
2022-12-18T23:36:21.317Z,8.70
2022-12-18T23:38:49.672Z,9.43
2022-12-18T23:41:17.586Z,7.93
2022-12-18T23:43:44.460Z,9.05
2022-12-18T23:46:23.644Z,8.07
2022-12-18T23:48:51.038Z,8.98
2022-12-18T23:51:20.336Z,8.57
2022-12-18T23:53:46.935Z,8.63
2022-12-18T23:56:14.628Z,9.77
2022-12-18T23:58:42.307Z,8.77
